createdAt,value
2017-11-09T00:00:45.959Z,95.50
2017-11-09T00:03:13.491Z,95.40
2017-11-09T00:05:46.679Z,95.40
2017-11-09T00:08:14.974Z,95.30
2017-11-09T00:10:43.236Z,95.30
2017-11-09T00:13:10.773Z,95.30
2017-11-09T00:15:38.282Z,95.30
2017-11-09T00:18:05.810Z,95.30
2017-11-09T00:20:33.316Z,95.30
2017-11-09T00:23:00.863Z,95.30
2017-11-09T00:25:28.362Z,95.30
2017-11-09T00:27:55.860Z,95.30
2017-11-09T00:30:24.154Z,95.40
2017-11-09T00:32:52.422Z,95.40
2017-11-09T00:35:19.951Z,95.40
2017-11-09T00:37:47.451Z,95.30
2017-11-09T00:40:14.996Z,95.30
2017-11-09T00:42:42.507Z,95.30
2017-11-09T00:45:10.003Z,95.30
2017-11-09T00:47:37.531Z,95.20
2017-11-09T00:50:05.037Z,95.20
2017-11-09T00:52:32.588Z,95.30
2017-11-09T00:55:00.103Z,95.30
2017-11-09T00:57:27.650Z,95.30
2017-11-09T00:59:55.915Z,95.30
2017-11-09T01:02:23.415Z,95.30
2017-11-09T01:04:51.712Z,95.20
2017-11-09T01:07:19.980Z,95.20
2017-11-09T01:09:49.340Z,95.20
2017-11-09T01:12:16.896Z,95.10
2017-11-09T01:14:44.477Z,95.20
2017-11-09T01:17:11.981Z,95.30
2017-11-09T01:19:39.518Z,95.30
2017-11-09T01:22:07.015Z,95.30
2017-11-09T01:24:34.547Z,95.40
2017-11-09T01:27:02.042Z,95.40
2017-11-09T01:29:29.586Z,95.40
2017-11-09T01:31:57.855Z,95.40
2017-11-09T01:34:25.355Z,95.40
2017-11-09T01:36:52.890Z,95.30
2017-11-09T01:39:20.387Z,95.50
2017-11-09T01:41:48.684Z,95.60
2017-11-09T01:44:16.190Z,95.60
2017-11-09T01:46:43.720Z,95.50
2017-11-09T01:49:11.986Z,95.60
2017-11-09T01:51:39.516Z,95.60
2017-11-09T01:54:07.034Z,95.60
2017-11-09T01:56:35.307Z,95.60
2017-11-09T01:59:02.840Z,95.60
2017-11-09T02:01:30.339Z,95.50
2017-11-09T02:03:57.869Z,95.50
2017-11-09T02:06:25.384Z,95.60
2017-11-09T02:08:53.686Z,95.50
2017-11-09T02:11:21.190Z,95.50
2017-11-09T02:13:49.498Z,95.60
2017-11-09T02:16:17.006Z,95.60
2017-11-09T02:18:44.525Z,95.50
2017-11-09T02:21:12.060Z,95.60
2017-11-09T02:23:39.554Z,95.60
2017-11-09T02:26:07.854Z,95.60
2017-11-09T02:28:36.118Z,95.60
2017-11-09T02:31:03.650Z,95.60
2017-11-09T02:33:31.145Z,95.60
2017-11-09T02:35:58.693Z,95.60
2017-11-09T02:38:26.190Z,95.60
2017-11-09T02:40:53.691Z,95.60
2017-11-09T02:43:21.991Z,95.70
2017-11-09T02:45:50.255Z,95.70
2017-11-09T02:48:17.787Z,95.70
2017-11-09T02:53:36.075Z,95.60
2017-11-09T02:56:03.576Z,95.60
2017-11-09T02:58:31.109Z,95.60
2017-11-09T03:00:58.610Z,95.50
2017-11-09T03:03:26.150Z,95.40
2017-11-09T03:05:53.650Z,95.40
2017-11-09T03:08:21.947Z,95.50
2017-11-09T03:10:49.447Z,95.50
2017-11-09T03:13:17.048Z,95.70
2017-11-09T03:15:45.706Z,95.40
2017-11-09T03:18:13.212Z,95.40
2017-11-09T03:20:40.747Z,95.40
2017-11-09T03:23:08.247Z,95.40
2017-11-09T03:25:36.556Z,95.30
2017-11-09T03:28:04.058Z,95.30
2017-11-09T03:30:31.593Z,95.30
2017-11-09T03:32:59.105Z,95.30
2017-11-09T03:35:26.656Z,95.40
2017-11-09T03:37:54.159Z,95.40
2017-11-09T03:40:21.661Z,95.40
2017-11-09T03:42:49.968Z,95.50
2017-11-09T03:45:17.468Z,95.50
2017-11-09T03:47:45.003Z,95.50
2017-11-09T03:50:12.504Z,95.50
2017-11-09T03:52:40.054Z,95.50
2017-11-09T03:55:07.559Z,95.50
2017-11-09T03:57:35.090Z,95.40
2017-11-09T04:00:03.362Z,95.30
2017-11-09T04:02:31.663Z,95.30
2017-11-09T04:04:59.966Z,95.30
2017-11-09T04:07:27.474Z,95.30
2017-11-09T04:09:55.031Z,95.30
2017-11-09T04:12:23.300Z,95.20
2017-11-09T04:14:50.843Z,95.20
2017-11-09T04:17:18.341Z,95.20
2017-11-09T04:19:45.900Z,95.30
2017-11-09T04:22:14.163Z,95.30
2017-11-09T04:24:41.714Z,95.30
2017-11-09T04:27:09.212Z,95.30
2017-11-09T04:29:36.706Z,95.30
2017-11-09T04:32:05.007Z,95.30
2017-11-09T04:34:32.511Z,95.30
2017-11-09T04:37:00.081Z,95.30
2017-11-09T04:39:27.582Z,95.30
2017-11-09T04:41:55.115Z,95.40
2017-11-09T04:44:22.614Z,95.40
2017-11-09T04:46:50.150Z,95.40
2017-11-09T04:49:17.653Z,95.50
2017-11-09T04:51:45.226Z,95.50
2017-11-09T04:54:12.727Z,95.50
2017-11-09T04:56:41.043Z,95.40
2017-11-09T04:59:08.542Z,95.40
2017-11-09T05:01:36.047Z,95.40
2017-11-09T05:04:03.586Z,95.40
2017-11-09T05:06:31.086Z,95.40
2017-11-09T05:08:58.623Z,95.40
2017-11-09T05:11:26.126Z,95.40
2017-11-09T05:13:53.695Z,95.40
2017-11-09T05:16:21.203Z,95.30
2017-11-09T05:18:49.467Z,95.30
2017-11-09T05:21:17.023Z,95.30
2017-11-09T05:23:44.522Z,95.60
2017-11-09T05:26:12.845Z,95.30
2017-11-09T05:28:40.351Z,95.30
2017-11-09T05:31:07.888Z,95.20
2017-11-09T05:33:35.403Z,95.20
2017-11-09T05:36:02.944Z,95.20
2017-11-09T05:38:30.447Z,95.20
2017-11-09T05:40:57.990Z,95.30
2017-11-09T05:43:25.486Z,95.30
2017-11-09T05:45:52.987Z,95.30
2017-11-09T05:48:21.286Z,95.30
2017-11-09T05:50:49.562Z,95.30
2017-11-09T05:53:17.864Z,95.30
2017-11-09T05:55:46.123Z,95.30
2017-11-09T05:58:13.664Z,95.30
2017-11-09T06:00:41.170Z,95.20
2017-11-09T06:03:08.706Z,95.20
2017-11-09T06:05:36.203Z,95.20
2017-11-09T06:08:03.738Z,95.30
2017-11-09T06:10:31.239Z,95.30
2017-11-09T06:12:58.772Z,95.30
2017-11-09T06:15:26.275Z,95.30
2017-11-09T06:17:53.826Z,95.30
2017-11-09T06:20:21.321Z,95.30
2017-11-09T06:22:48.823Z,95.30
2017-11-09T06:25:16.354Z,95.30
2017-11-09T06:27:43.857Z,95.60
2017-11-09T06:30:11.398Z,95.40
2017-11-09T06:32:38.894Z,95.40
2017-11-09T06:35:06.430Z,95.40
2017-11-09T06:37:33.945Z,95.40
2017-11-09T06:40:01.506Z,95.40
2017-11-09T06:42:29.002Z,95.40
2017-11-09T06:44:57.314Z,95.40
2017-11-09T06:47:24.856Z,95.40
2017-11-09T06:49:52.359Z,95.30
2017-11-09T06:52:19.900Z,95.40
2017-11-09T06:54:47.399Z,95.40
2017-11-09T06:57:15.703Z,95.30
2017-11-09T06:59:43.199Z,95.30
2017-11-09T07:02:10.923Z,95.30
2017-11-09T07:04:39.194Z,95.30
2017-11-09T07:07:06.686Z,95.30
2017-11-09T07:09:34.988Z,95.20
2017-11-09T07:12:02.496Z,95.20
2017-11-09T07:14:30.027Z,95.30
2017-11-09T07:16:57.528Z,95.20
2017-11-09T07:19:25.054Z,95.20
2017-11-09T07:21:53.331Z,95.10
2017-11-09T07:24:20.874Z,95.10
2017-11-09T07:26:48.383Z,95.10
2017-11-09T07:29:16.703Z,95.20
2017-11-09T07:31:44.216Z,95.20
2017-11-09T07:34:11.715Z,95.20
2017-11-09T07:36:39.264Z,95.20
2017-11-09T07:39:06.760Z,95.10
2017-11-09T07:41:35.063Z,95.10
2017-11-09T07:44:02.571Z,95.10
2017-11-09T07:46:30.101Z,95.00
2017-11-09T07:48:58.367Z,95.00
2017-11-09T07:51:25.904Z,95.00
2017-11-09T07:53:53.411Z,95.00
2017-11-09T07:56:20.948Z,94.90
2017-11-09T07:58:48.447Z,94.90
2017-11-09T08:01:15.991Z,94.70
2017-11-09T08:03:43.495Z,94.60
2017-11-09T08:06:11.004Z,94.40
2017-11-09T08:08:38.559Z,94.40
2017-11-09T08:11:06.080Z,94.50
2017-11-09T08:13:33.616Z,94.40
2017-11-09T08:16:01.128Z,94.40
2017-11-09T08:18:28.685Z,94.30
2017-11-09T08:20:56.194Z,94.30
2017-11-09T08:23:23.727Z,94.30
2017-11-09T08:25:53.460Z,94.20
2017-11-09T08:28:22.746Z,94.20
2017-11-09T08:30:52.635Z,94.20
2017-11-09T08:33:22.108Z,94.20
2017-11-09T08:35:49.619Z,94.30
2017-11-09T08:38:17.162Z,94.20
2017-11-09T08:40:44.658Z,94.00
2017-11-09T08:43:12.219Z,94.10
2017-11-09T08:45:39.729Z,94.10
2017-11-09T08:48:07.278Z,94.20
2017-11-09T08:50:34.819Z,94.20
2017-11-09T08:53:02.323Z,94.10
2017-11-09T08:55:29.871Z,94.10
2017-11-09T08:57:57.378Z,94.10
2017-11-09T09:00:25.687Z,94.10
2017-11-09T09:02:53.955Z,94.10
2017-11-09T09:05:21.507Z,94.10
2017-11-09T09:07:49.006Z,94.00
2017-11-09T09:10:17.275Z,94.00
2017-11-09T09:12:44.813Z,94.00
2017-11-09T09:15:12.316Z,94.00
2017-11-09T09:17:39.859Z,93.90
2017-11-09T09:20:07.364Z,93.80
2017-11-09T09:22:49.786Z,93.70
2017-11-09T09:25:18.930Z,93.70
2017-11-09T09:27:50.141Z,93.80
2017-11-09T09:30:17.672Z,93.40
2017-11-09T09:36:04.195Z,93.20
2017-11-09T09:38:34.605Z,93.10
2017-11-09T09:41:02.107Z,93.10
2017-11-09T09:43:30.405Z,92.80
2017-11-09T09:45:57.906Z,92.80
2017-11-09T09:48:25.446Z,92.70
2017-11-09T09:50:52.954Z,92.60
2017-11-09T09:53:20.513Z,92.50
2017-11-09T09:55:48.027Z,92.40
2017-11-09T09:58:15.582Z,92.50
2017-11-09T10:00:43.084Z,92.50
2017-11-09T10:03:10.592Z,92.50
2017-11-09T10:05:38.147Z,92.20
2017-11-09T10:08:06.414Z,92.00
2017-11-09T10:10:33.954Z,92.00
2017-11-09T10:13:01.450Z,91.90
2017-11-09T10:15:28.983Z,91.40
2017-11-09T10:17:56.487Z,90.90
2017-11-09T10:20:24.028Z,90.50
2017-11-09T10:22:51.531Z,90.50
2017-11-09T10:25:19.071Z,90.30
2017-11-09T10:27:46.607Z,90.50
2017-11-09T10:30:14.886Z,90.00
2017-11-09T10:32:42.419Z,90.00
2017-11-09T10:35:09.919Z,89.20
2017-11-09T10:37:37.460Z,89.10
2017-11-09T10:40:04.956Z,88.80
2017-11-09T10:42:32.510Z,88.20
2017-11-09T10:45:00.019Z,88.50
2017-11-09T10:47:27.518Z,88.30
2017-11-09T10:49:55.061Z,88.20
2017-11-09T10:52:22.554Z,88.10
2017-11-09T10:54:50.856Z,87.80
2017-11-09T10:57:18.363Z,87.70
2017-11-09T10:59:45.924Z,88.20
2017-11-09T11:02:17.100Z,87.50
2017-11-09T11:04:44.651Z,87.70
2017-11-09T11:07:12.150Z,88.10
2017-11-09T11:09:39.650Z,87.60
2017-11-09T11:12:07.952Z,85.90
2017-11-09T11:14:35.472Z,85.90
2017-11-09T11:17:03.015Z,86.60
2017-11-09T11:19:30.509Z,85.70
2017-11-09T11:21:58.044Z,85.10
2017-11-09T11:24:25.555Z,84.60
2017-11-09T11:26:53.112Z,85.00
2017-11-09T11:29:20.614Z,84.90
2017-11-09T11:31:48.130Z,85.20
2017-11-09T11:34:15.666Z,85.60
2017-11-09T11:36:43.168Z,86.00
2017-11-09T11:39:10.727Z,86.50
2017-11-09T11:41:38.990Z,86.80
2017-11-09T11:44:06.524Z,86.80
2017-11-09T11:46:34.030Z,86.30
2017-11-09T11:49:01.560Z,86.30
2017-11-09T11:51:29.064Z,84.70
2017-11-09T11:53:56.602Z,83.00
2017-11-09T11:56:24.135Z,82.90
2017-11-09T11:58:52.402Z,81.20
2017-11-09T12:01:19.938Z,80.60
2017-11-09T12:03:47.444Z,80.90
2017-11-09T12:06:14.975Z,79.40
2017-11-09T12:08:42.482Z,81.20
2017-11-09T12:11:10.052Z,80.80
2017-11-09T12:13:37.562Z,80.30
2017-11-09T12:16:05.823Z,80.00
2017-11-09T12:18:33.363Z,80.00
2017-11-09T12:21:00.863Z,80.00
2017-11-09T12:23:29.166Z,80.20
2017-11-09T12:25:56.666Z,80.30
2017-11-09T12:28:24.968Z,79.20
2017-11-09T12:30:52.479Z,79.20
2017-11-09T12:33:20.016Z,78.40
2017-11-09T12:35:47.535Z,77.20
2017-11-09T12:38:15.066Z,76.70
2017-11-09T12:40:42.568Z,76.00
2017-11-09T12:43:10.139Z,77.20
2017-11-09T12:45:37.646Z,78.10
2017-11-09T12:48:05.907Z,76.60
2017-11-09T12:50:33.440Z,76.60
2017-11-09T12:53:00.948Z,77.20
2017-11-09T12:55:28.501Z,76.30
2017-11-09T12:57:56.003Z,76.20
2017-11-09T13:00:23.550Z,76.10
2017-11-09T13:02:51.042Z,76.50
2017-11-09T13:05:18.579Z,76.70
2017-11-09T13:07:46.079Z,76.80
2017-11-09T13:10:13.649Z,77.80
2017-11-09T13:12:41.138Z,78.80
2017-11-09T13:15:08.652Z,79.30
2017-11-09T13:17:36.198Z,79.30
2017-11-09T13:20:04.483Z,79.60
2017-11-09T13:22:32.809Z,80.10
2017-11-09T13:25:00.311Z,80.10
2017-11-09T13:27:27.851Z,79.50
2017-11-09T13:29:55.352Z,79.70
2017-11-09T13:32:23.651Z,77.80
2017-11-09T13:34:51.151Z,77.80
2017-11-09T13:37:19.479Z,77.70
2017-11-09T13:39:46.987Z,77.60
2017-11-09T13:42:14.492Z,77.80
2017-11-09T13:44:42.791Z,77.80
2017-11-09T13:47:10.295Z,77.80
2017-11-09T13:49:37.831Z,77.60
2017-11-09T13:52:05.331Z,77.00
2017-11-09T13:54:32.867Z,76.60
2017-11-09T13:57:00.372Z,77.80
2017-11-09T13:59:27.902Z,77.00
2017-11-09T14:01:56.164Z,77.10
2017-11-09T14:04:23.712Z,77.10
2017-11-09T14:06:51.221Z,76.20
2017-11-09T14:09:18.722Z,76.80
2017-11-09T14:11:46.274Z,76.50
2017-11-09T14:14:14.578Z,77.20
2017-11-09T14:16:42.119Z,76.50
2017-11-09T14:19:09.610Z,75.80
2017-11-09T14:21:37.906Z,75.80
2017-11-09T14:24:06.185Z,75.60
2017-11-09T14:26:33.731Z,75.60
2017-11-09T14:29:01.237Z,76.10
2017-11-09T14:31:29.559Z,75.80
2017-11-09T14:33:57.060Z,75.90
2017-11-09T14:36:24.558Z,76.30
2017-11-09T14:38:52.090Z,76.50
2017-11-09T14:41:19.592Z,76.60
2017-11-09T14:43:47.143Z,76.30
2017-11-09T14:46:14.650Z,77.20
2017-11-09T14:48:42.911Z,80.00
2017-11-09T14:51:10.443Z,79.90
2017-11-09T14:53:37.940Z,80.30
2017-11-09T14:56:05.462Z,80.70
2017-11-09T14:58:32.964Z,81.10
2017-11-09T15:01:00.495Z,81.80
2017-11-09T15:03:27.991Z,82.60
2017-11-09T15:05:55.523Z,82.00
2017-11-09T15:08:23.023Z,82.00
2017-11-09T15:10:51.333Z,82.80
2017-11-09T15:13:18.826Z,82.80
2017-11-09T15:15:52.248Z,82.80
2017-11-09T15:18:19.743Z,83.50
2017-11-09T15:20:47.234Z,83.70
2017-11-09T15:23:14.766Z,83.90
2017-11-09T15:25:42.266Z,83.80
2017-11-09T15:28:10.563Z,84.30
2017-11-09T15:30:38.823Z,84.60
2017-11-09T15:33:07.293Z,84.50
2017-11-09T15:35:36.765Z,85.20
2017-11-09T15:38:05.063Z,86.40
2017-11-09T15:40:32.568Z,86.30
2017-11-09T15:43:00.098Z,87.20
2017-11-09T15:45:27.598Z,88.10
2017-11-09T15:47:55.135Z,88.70
2017-11-09T15:50:23.404Z,90.00
2017-11-09T15:52:50.904Z,90.00
2017-11-09T15:55:18.467Z,90.30
2017-11-09T15:57:46.725Z,90.70
2017-11-09T16:00:14.255Z,90.70
2017-11-09T16:02:41.752Z,90.80
2017-11-09T16:05:09.279Z,90.70
2017-11-09T16:07:38.587Z,90.70
2017-11-09T16:10:06.855Z,90.80
2017-11-09T16:12:34.411Z,90.70
2017-11-09T16:15:01.924Z,90.60
2017-11-09T16:17:30.221Z,90.70
2017-11-09T16:19:57.713Z,90.70
2017-11-09T16:22:25.247Z,90.70
2017-11-09T16:24:53.513Z,91.00
2017-11-09T16:27:22.933Z,90.90
2017-11-09T16:29:50.431Z,91.10
2017-11-09T16:32:18.737Z,91.40
2017-11-09T16:34:46.256Z,91.40
2017-11-09T16:37:13.761Z,91.50
2017-11-09T16:39:42.059Z,91.80
2017-11-09T16:42:09.564Z,91.80
2017-11-09T16:44:37.108Z,91.90
2017-11-09T16:47:04.623Z,92.00
2017-11-09T16:49:32.156Z,92.10
2017-11-09T16:51:59.654Z,92.30
2017-11-09T16:54:27.201Z,92.40
2017-11-09T16:56:54.705Z,92.40
2017-11-09T16:59:22.202Z,92.50
2017-11-09T17:01:49.743Z,92.50
2017-11-09T17:04:17.342Z,92.50
2017-11-09T17:06:44.874Z,92.60
2017-11-09T17:09:12.371Z,92.50
2017-11-09T17:11:39.907Z,92.60
2017-11-09T17:14:07.419Z,92.60
2017-11-09T17:16:34.975Z,92.70
2017-11-09T17:19:02.475Z,92.90
2017-11-09T17:21:29.986Z,93.00
2017-11-09T17:23:57.539Z,93.10
2017-11-09T17:26:25.807Z,93.30
2017-11-09T17:28:54.124Z,93.50
2017-11-09T17:31:22.391Z,93.70
2017-11-09T17:33:49.942Z,93.70
2017-11-09T17:36:17.459Z,93.90
2017-11-09T17:38:45.023Z,93.90
2017-11-09T17:41:16.113Z,93.90
2017-11-09T17:43:48.593Z,93.80
2017-11-09T17:46:16.094Z,93.90
2017-11-09T17:48:43.628Z,94.00
2017-11-09T17:51:13.921Z,94.20
2017-11-09T17:53:41.455Z,94.20
2017-11-09T17:56:08.968Z,94.20
2017-11-09T17:58:38.445Z,94.20
2017-11-09T18:01:05.987Z,94.20
2017-11-09T18:03:35.050Z,94.20
2017-11-09T18:06:02.598Z,94.20
2017-11-09T18:08:30.107Z,94.20
2017-11-09T18:10:57.648Z,94.30
2017-11-09T18:13:25.150Z,94.50
2017-11-09T18:15:53.271Z,94.60
2017-11-09T18:18:20.770Z,94.60
2017-11-09T18:20:48.306Z,94.70
2017-11-09T18:23:16.576Z,94.60
2017-11-09T18:25:44.111Z,94.60
2017-11-09T18:28:11.632Z,94.60
2017-11-09T18:30:39.139Z,94.70
2017-11-09T18:33:06.672Z,94.80
2017-11-09T18:35:34.175Z,94.90
2017-11-09T18:38:01.704Z,95.00
2017-11-09T18:40:29.199Z,94.90
2017-11-09T18:42:56.734Z,94.90
2017-11-09T18:45:24.231Z,94.90
2017-11-09T18:47:52.546Z,95.10
2017-11-09T18:50:20.054Z,95.10
2017-11-09T18:52:47.554Z,95.00
2017-11-09T18:55:15.863Z,94.80
2017-11-09T18:57:44.126Z,94.70
2017-11-09T19:00:11.668Z,94.70
2017-11-09T19:02:39.183Z,94.80
2017-11-09T19:05:06.722Z,94.60
2017-11-09T19:07:34.226Z,94.50
2017-11-09T19:10:02.527Z,94.60
2017-11-09T19:12:30.874Z,94.70
2017-11-09T19:14:58.418Z,94.70
2017-11-09T19:17:25.931Z,94.70
2017-11-09T19:19:53.468Z,94.60
2017-11-09T19:22:20.963Z,94.60
2017-11-09T19:24:48.517Z,94.70
2017-11-09T19:27:16.021Z,94.80
2017-11-09T19:29:43.531Z,94.80
2017-11-09T19:32:11.076Z,94.80
2017-11-09T19:34:38.587Z,94.80
2017-11-09T19:37:06.534Z,94.80
2017-11-09T19:39:34.038Z,94.80
2017-11-09T19:42:01.601Z,94.80
2017-11-09T19:44:29.098Z,94.90
2017-11-09T19:46:56.635Z,95.10
2017-11-09T19:49:24.905Z,95.30
2017-11-09T19:51:52.820Z,95.30
2017-11-09T19:54:20.335Z,95.20
2017-11-09T19:56:47.860Z,95.10
2017-11-09T19:59:15.417Z,95.00
2017-11-09T20:01:42.935Z,95.00
2017-11-09T20:04:10.471Z,95.00
2017-11-09T20:06:37.968Z,95.00
2017-11-09T20:09:05.507Z,95.10
2017-11-09T20:11:33.024Z,95.10
2017-11-09T20:14:00.571Z,95.20
2017-11-09T20:16:28.074Z,95.20
2017-11-09T20:18:55.619Z,95.10
2017-11-09T20:21:23.114Z,95.10
2017-11-09T20:23:50.671Z,95.00
2017-11-09T20:26:18.168Z,95.00
2017-11-09T20:28:45.670Z,95.10
2017-11-09T20:31:13.980Z,95.40
2017-11-09T20:33:41.480Z,95.40
2017-11-09T20:36:09.016Z,95.60
2017-11-09T20:38:36.514Z,95.70
2017-11-09T20:41:04.047Z,95.70
2017-11-09T20:43:32.332Z,95.40
2017-11-09T20:45:59.866Z,95.40
2017-11-09T20:48:27.371Z,95.20
2017-11-09T20:50:55.789Z,94.30
2017-11-09T20:53:23.286Z,94.30
2017-11-09T20:55:50.840Z,94.40
2017-11-09T20:58:18.338Z,94.20
2017-11-09T21:00:45.832Z,94.00
2017-11-09T21:03:13.382Z,93.90
2017-11-09T21:05:40.887Z,94.00
2017-11-09T21:08:08.419Z,93.70
2017-11-09T21:10:35.911Z,93.60
2017-11-09T21:13:03.443Z,93.30
2017-11-09T21:15:30.964Z,93.00
2017-11-09T21:17:58.502Z,93.00
2017-11-09T21:20:26.018Z,92.80
2017-11-09T21:22:54.329Z,92.90
2017-11-09T21:25:22.591Z,92.40
2017-11-09T21:27:50.150Z,92.40
2017-11-09T21:30:17.652Z,92.40
2017-11-09T21:32:45.923Z,92.20
2017-11-09T21:35:13.459Z,92.20
2017-11-09T21:37:40.954Z,92.10
2017-11-09T21:40:08.511Z,92.00
2017-11-09T21:42:36.013Z,92.00
2017-11-09T21:45:03.554Z,91.90
2017-11-09T21:47:31.071Z,92.20
2017-11-09T21:49:58.615Z,91.80
2017-11-09T21:52:26.110Z,91.80
2017-11-09T21:54:54.390Z,91.70
2017-11-09T21:57:22.691Z,91.40
2017-11-09T21:59:50.956Z,91.70
2017-11-09T22:02:18.490Z,91.70
2017-11-09T22:04:45.986Z,91.70
2017-11-09T22:07:13.523Z,91.70
2017-11-09T22:09:41.023Z,91.60
2017-11-09T22:12:08.560Z,91.50
2017-11-09T22:14:36.063Z,91.40
2017-11-09T22:17:03.595Z,91.40
2017-11-09T22:19:31.096Z,91.00
2017-11-09T22:21:58.646Z,90.90
2017-11-09T22:24:26.150Z,90.80
2017-11-09T22:26:53.651Z,90.80
2017-11-09T22:29:21.186Z,90.80
2017-11-09T22:31:48.687Z,90.80
2017-11-09T22:34:16.227Z,91.00
2017-11-09T22:36:43.730Z,91.00
2017-11-09T22:39:11.266Z,91.10
2017-11-09T22:41:38.759Z,91.10
2017-11-09T22:44:06.303Z,91.20
2017-11-09T22:46:33.803Z,91.30
2017-11-09T22:49:01.295Z,91.20
2017-11-09T22:51:28.830Z,91.20
2017-11-09T22:53:56.330Z,91.40
2017-11-09T22:56:23.860Z,91.30
2017-11-09T22:58:51.362Z,91.10
2017-11-09T23:01:18.991Z,91.20
2017-11-09T23:03:46.549Z,91.20
2017-11-09T23:06:14.101Z,90.90
2017-11-09T23:08:41.590Z,90.90
2017-11-09T23:11:09.915Z,90.80
2017-11-09T23:13:37.411Z,90.80
2017-11-09T23:16:04.917Z,90.70
2017-11-09T23:18:33.219Z,90.80
2017-11-09T23:21:00.709Z,90.80
2017-11-09T23:23:28.243Z,90.80
2017-11-09T23:25:56.507Z,90.90
2017-11-09T23:28:24.044Z,90.70
2017-11-09T23:30:51.538Z,90.60
2017-11-09T23:33:21.864Z,90.40
2017-11-09T23:35:49.374Z,90.20
2017-11-09T23:38:16.902Z,90.10
2017-11-09T23:40:44.407Z,90.00
2017-11-09T23:43:11.972Z,90.00
2017-11-09T23:45:39.470Z,89.80
2017-11-09T23:48:08.075Z,89.80
2017-11-09T23:50:36.345Z,89.20
2017-11-09T23:53:03.838Z,89.20
2017-11-09T23:55:32.134Z,89.10
2017-11-09T23:58:00.398Z,89.00
